Albert, NM

3:39 PM MDT on July 31, 2014 (GMT -0600)
Tucumcari Municipal (KTCC) Elev 4065 ft | 35.18 °N, 103.60 °W | Change Station

Current weather conditions updated 46 minutes ago

Clear
Clear
80 °F
Feels Like 80 °F
N
7
Wind Variable Wind from Variable

Today is forecast to be Cooler than yesterday.

Today
High -- | Low -- °F
--% Chance of Precip.
Yesterday
High -- | Low -- °F
Precip. -- in
6:01 AM 7:59 PM
Waxing Crescent, 21% visible
Pressure 30.03 in
Visibility 10.0 miles
Clouds Clear
Dew Point 49 °F
Humidity 34%
Rainfall 0.00 in
Snow Depth Not available.
UV 10 out of 12
Pollen 3.30 out of 12
Air Quality Not available.
Flu Activity Not available.
METAR KTCC 312053Z AUTO VRB06KT 10SM CLR 27/09 A3019 RMK AO2 SLP168 T02670094 58020

More Conditions Fewer Conditions

Pressure 30.03 in
Visibility 10.0 miles
Clouds Clear
Dew Point 49 °F
Humidity 34%
Rainfall 0.00 in
Snow Depth Not available.
UV 10 out of 12
Pollen 3.30 out of 12
Air Quality Not available.
Flu Activity Not available.
METAR KTCC 312053Z AUTO VRB06KT 10SM CLR 27/09 A3019 RMK AO2 SLP168 T02670094 58020

More Conditions Fewer Conditions

10-Day Weather Forecast

Almanac

Astronomy

Jul. 31, 2014 Rise Set
Actual Time 6:01 AM MDT 7:59 PM MDT
Civil Twilight 5:33 AM MDT 8:27 PM MDT
Nautical Twilight 4:59 AM MDT 9:01 PM MDT
Astronomical Twilight 4:22 AM MDT 9:38 PM MDT
Moon 10:20 AM MDT 10:25 PM MDT
Length of Visible Light 14h 54m
Length of Day
13h 57m
Tomorrow will be 1m 40s shorter.
Waxing Crescent, 21% of the Moon is Illuminated
Today
Waxing Crescent
Aug 3
First Quarter
Aug 10
Full
Aug 17
Last Quarter
Aug 25
New

Today's Extremes

State Highs State Lows

Community

WunderPhotos

Upload Photos

1,739,454 photos uploaded!

Nearby

Snow Depth

Station Depth Elevation
Tolby 0 in 10180 ft
Wesner Springs 2 in 11120 ft
Gallegos Peak 0 in 9800 ft
Red River Pass #2 0 in 9850 ft
Elk Cabin 119 in 8210 ft

Earthquake Activity

City Distance Mag. Time & Date
No recent earthquake activity has been reported nearby.
Minimum magnitude displayed is 2.5.

Coastal Water Temperatures

Place Temperature
No Stations Reporting

Nearby Weather Stations

There are no personal weather stations in this area.